Impacts TAF Board INFO
FOR SITUATIONAL AWARENESS. NOT TO BE USED FOR FLIGHT PLANNING PURPOSES.
IDs:

KSEA - Seattle-Tacoma Intl, WA, US

Issued at 0535 UTC 11 Dec 2017
Updated at 0716 UTC 11 Dec 2017
Potential Impact None Slight Moderate High
Time<<11/20Z 11/21Z 11/22Z 11/23Z 12/00Z 12/01Z 12/02Z 12/03Z 12/04Z 12/05Z 12/06Z 12/07Z 12/08Z>>
Type PRVL PRVL PRVL PRVL PRVL PRVL PRVL PRVL PRVL PRVL PRVL PRVL PRVL
VIS >6 >6 >6 >6 >6 >6 >6 >6 >6 >6 >6 >6 >6
CIG -- -- -- -- -- -- -- -- 200 200 200 200 200
Cover SKC SKC SKC SKC SKC SKC SKC SKC BKN BKN BKN BKN BKN
FltCat VFR VFR VFR VFR VFR VFR VFR VFR VFR VFR VFR VFR VFR
WX -- -- -- -- -- -- -- -- -- -- -- -- --
WDir 170 170 170 170 170 170 170 170 140 140 140 140 140
WSpd 4 4 4 4 4 4 4 4 5 5 5 5 5
WGst -- -- -- -- -- -- -- -- -- -- -- -- --

Raw TAF
KSEA 110535Z 1106/1212 07003KT P6SM SKC
  FM111200 12003KT P6SM VCFG SKC
  FM112000 17004KT P6SM SKC
  FM120400 14005KT P6SM BKN200
  FM121000 16005KT P6SM SCT080 BKN200


METAR Board
Radar Display
Forecast Discussion

FOR SITUATIONAL AWARENESS. NOT TO BE USED FOR FLIGHT PLANNING PURPOSES.